Time;durP1;ratioP1;P1;durP2;ratioP2;P2;SDS_P1;SDS_P2;PMS_P1;PMS_P2;Temp;Humidity;BMP_temperature;BMP_pressure;BME280_temperature;BME280_humidity;BME280_pressure;Samples;Min_cycle;Max_cycle;Signal;HPM_P1;HPM_P2
2021/03/05 00:01:01;;;;;;;22.58;13.18;;;;;;;3.25;100.00;101145.13;5194060;28;20390;-81
2021/03/05 00:03:31;;;;;;;23.85;13.80;;;;;;;3.26;100.00;101146.88;5185022;28;20049;-81
2021/03/05 00:06:01;;;;;;;24.45;11.98;;;;;;;3.34;100.00;101145.19;5185135;28;20037;-81
2021/03/05 00:08:32;;;;;;;23.35;13.30;;;;;;;3.49;100.00;101145.19;5184796;28;20079;-79
2021/03/05 00:11:02;;;;;;;21.08;11.75;;;;;;;3.48;100.00;101156.38;5189622;28;20037;-82
2021/03/05 00:13:33;;;;;;;19.95;12.05;;;;;;;3.51;100.00;101149.50;5192206;28;20041;-81
2021/03/05 00:16:04;;;;;;;25.88;12.77;;;;;;;3.50;100.00;101158.13;5183577;28;20022;-80
2021/03/05 00:18:34;;;;;;;22.77;11.93;;;;;;;3.46;100.00;101155.53;5191645;28;20087;-81
2021/03/05 00:21:05;;;;;;;19.92;10.98;;;;;;;3.34;100.00;101160.69;5193804;28;20049;-82
2021/03/05 00:23:35;;;;;;;18.27;11.20;;;;;;;3.38;100.00;101168.41;5194897;28;20017;-81
2021/03/05 00:26:05;;;;;;;22.02;11.25;;;;;;;3.36;100.00;101164.13;5194475;28;20048;-80
2021/03/05 00:28:36;;;;;;;18.15;10.88;;;;;;;3.30;100.00;101164.09;5188295;28;20033;-81
2021/03/05 00:31:06;;;;;;;20.33;11.93;;;;;;;3.25;100.00;101171.84;5192371;28;20032;-82
2021/03/05 00:33:36;;;;;;;18.23;11.82;;;;;;;3.23;100.00;101177.84;5204101;28;20032;-82
2021/03/05 00:46:27;;;;;;;22.15;12.27;;;;;;;3.22;100.00;101189.03;5177418;28;20530;-81
2021/03/05 00:48:57;;;;;;;20.05;12.20;;;;;;;3.16;100.00;101196.78;5181546;28;20025;-81
2021/03/05 00:51:27;;;;;;;19.45;11.52;;;;;;;3.18;100.00;101195.06;5183271;28;20030;-80
2021/03/05 00:53:58;;;;;;;18.80;12.00;;;;;;;3.15;100.00;101195.00;5183305;28;20026;-81
2021/03/05 00:56:28;;;;;;;20.45;11.35;;;;;;;3.09;100.00;101190.72;5182841;28;20034;-81
2021/03/05 00:58:58;;;;;;;18.52;10.57;;;;;;;3.14;100.00;101195.88;5186290;28;20482;-82
2021/03/05 01:01:28;;;;;;;20.15;11.63;;;;;;;3.09;100.00;101192.41;5189032;28;20018;-81
2021/03/05 01:03:59;;;;;;;19.63;10.95;;;;;;;3.20;100.00;101183.84;5183136;28;20389;-80
2021/03/05 01:06:29;;;;;;;18.20;11.48;;;;;;;3.11;100.00;101194.16;5183130;28;20022;-80
2021/03/05 01:08:59;;;;;;;20.65;11.82;;;;;;;3.01;100.00;101204.44;5182791;28;20025;-81
2021/03/05 01:11:30;;;;;;;16.42;11.18;;;;;;;3.14;100.00;101199.34;5193180;28;20044;-81
2021/03/05 01:14:00;;;;;;;18.50;11.00;;;;;;;3.28;100.00;101199.38;5188046;28;20029;-82
2021/03/05 01:16:31;;;;;;;18.95;11.15;;;;;;;3.23;100.00;101203.66;5183357;28;20026;-81
2021/03/05 01:19:05;;;;;;;16.58;10.95;;;;;;;3.13;100.00;101204.47;5182416;28;20087;-80
2021/03/05 01:21:36;;;;;;;15.63;9.95;;;;;;;3.19;100.00;101201.94;5181863;28;20025;-79
2021/03/05 01:24:07;;;;;;;20.10;10.95;;;;;;;3.09;100.00;101215.66;5182466;28;20041;-80
2021/03/05 01:26:40;;;;;;;19.85;11.52;;;;;;;3.12;100.00;101218.25;5183004;28;20105;-81
2021/03/05 01:29:10;;;;;;;16.10;10.85;;;;;;;3.01;100.00;101223.34;5185597;28;20083;-81
2021/03/05 01:31:41;;;;;;;18.50;11.60;;;;;;;3.12;100.00;101228.56;5188292;28;20021;-81
2021/03/05 01:34:11;;;;;;;20.35;11.15;;;;;;;3.05;100.00;101237.16;5182413;28;20030;-81
2021/03/05 01:36:41;;;;;;;20.60;11.57;;;;;;;3.00;100.00;101241.44;5182658;28;20448;-82
2021/03/05 01:39:12;;;;;;;19.70;10.75;;;;;;;2.89;100.00;101243.09;5180627;28;20494;-81
2021/03/05 01:41:42;;;;;;;19.75;11.48;;;;;;;2.80;100.00;101237.84;5182081;28;20060;-79
2021/03/05 01:44:13;;;;;;;16.98;11.10;;;;;;;2.84;100.00;101234.47;5186107;28;20030;-79
2021/03/05 01:46:44;;;;;;;17.42;11.43;;;;;;;2.82;100.00;101246.50;5181426;28;20033;-81
2021/03/05 01:49:14;;;;;;;16.67;10.63;;;;;;;2.73;100.00;101242.16;5182093;28;20403;-80
2021/03/05 01:51:45;;;;;;;19.63;10.88;;;;;;;2.76;100.00;101244.75;5182584;28;20107;-82
2021/03/05 01:54:15;;;;;;;17.73;11.30;;;;;;;2.77;100.00;101243.00;5181087;28;20037;-81
2021/03/05 01:56:51;;;;;;;17.70;10.57;;;;;;;2.82;100.00;101243.91;5178335;28;20025;-81
2021/03/05 01:59:26;;;;;;;18.38;11.00;;;;;;;2.60;100.00;101250.66;5180916;28;20033;-80
2021/03/05 02:02:07;;;;;;;19.90;10.88;;;;;;;2.77;100.00;101258.47;5182234;28;20033;-81
2021/03/05 02:04:37;;;;;;;18.00;10.68;;;;;;;2.73;100.00;101256.75;5178815;28;20036;-81
2021/03/05 02:07:08;;;;;;;17.27;10.93;;;;;;;2.70;100.00;101262.75;5182284;28;20033;-79
2021/03/05 02:09:38;;;;;;;16.42;10.68;;;;;;;2.65;100.00;101264.44;5181826;28;20033;-80
2021/03/05 02:12:09;;;;;;;19.05;10.70;;;;;;;2.60;100.00;101260.97;5182129;28;20029;-80
2021/03/05 02:14:40;;;;;;;16.25;10.40;;;;;;;2.64;100.00;101272.16;5181923;28;20026;-81
2021/03/05 02:17:22;;;;;;;17.30;10.02;;;;;;;2.70;100.00;101278.22;5182006;28;20506;-80
2021/03/05 02:20:08;;;;;;;17.63;10.18;;;;;;;2.70;100.00;101273.06;5182517;28;20037;-80
2021/03/05 02:22:45;;;;;;;15.55;10.15;;;;;;;2.72;100.00;101280.81;5182119;28;20029;-80
2021/03/05 02:25:46;;;;;;;18.83;10.70;;;;;;;2.70;100.00;101278.22;5182038;28;20084;-81
2021/03/05 02:28:59;;;;;;;17.17;10.25;;;;;;;2.67;100.00;101285.09;5181871;28;20037;-80
2021/03/05 02:31:39;;;;;;;19.75;10.30;;;;;;;2.74;100.00;101289.44;5193694;28;20025;-79
2021/03/05 02:34:30;;;;;;;18.00;11.45;;;;;;;2.78;100.00;101296.34;5202142;28;20033;-80
2021/03/05 02:37:09;;;;;;;18.38;10.45;;;;;;;2.67;100.00;101298.00;5202193;28;20029;-80
2021/03/05 02:39:57;;;;;;;17.17;10.68;;;;;;;2.46;100.00;101297.81;5201697;28;20036;-80
2021/03/05 02:42:47;;;;;;;17.90;10.63;;;;;;;2.36;100.00;101306.31;5182693;28;20022;-81
2021/03/05 02:45:21;;;;;;;18.83;10.50;;;;;;;2.40;100.00;101308.06;5160782;28;20030;-81
2021/03/05 02:47:55;;;;;;;19.42;10.82;;;;;;;2.36;100.00;101314.91;5169989;28;20026;-81
2021/03/05 02:50:27;;;;;;;18.58;10.75;;;;;;;2.40;100.00;101316.69;5181143;28;20020;-81
2021/03/05 02:53:01;;;;;;;16.92;9.90;;;;;;;2.31;100.00;101313.16;5179452;28;20052;-81
2021/03/05 02:55:35;;;;;;;16.30;9.68;;;;;;;2.17;100.00;101320.75;5179715;28;20053;-80
2021/03/05 02:58:06;;;;;;;19.40;10.13;;;;;;;2.28;100.00;101318.25;5181149;28;20103;-80
2021/03/05 03:00:37;;;;;;;21.25;10.13;;;;;;;2.10;100.00;101328.41;5187984;28;20037;-80
2021/03/05 03:03:08;;;;;;;19.17;9.68;;;;;;;2.22;100.00;101332.00;5182810;28;20476;-81
2021/03/05 03:05:39;;;;;;;17.77;10.35;;;;;;;2.38;100.00;101338.16;5180842;28;20026;-81
2021/03/05 03:08:10;;;;;;;18.17;9.32;;;;;;;2.32;100.00;101338.09;5177526;28;20026;-81
2021/03/05 03:10:40;;;;;;;16.58;9.55;;;;;;;2.24;100.00;101342.31;5181715;28;20018;-81
2021/03/05 03:13:11;;;;;;;19.67;9.18;;;;;;;2.13;100.00;101344.78;5184191;28;20021;-81
2021/03/05 03:15:42;;;;;;;17.73;8.98;;;;;;;2.19;100.00;101343.97;5201517;28;20037;-81
2021/03/05 03:18:13;;;;;;;17.35;9.00;;;;;;;2.11;100.00;101346.47;5200942;28;20051;-81
2021/03/05 03:20:45;;;;;;;14.23;7.95;;;;;;;2.07;100.00;101356.72;5200617;28;20552;-81
2021/03/05 03:23:15;;;;;;;16.88;8.55;;;;;;;2.00;100.00;101350.63;5201504;28;20052;-79
2021/03/05 03:25:46;;;;;;;15.40;7.75;;;;;;;2.09;100.00;101358.47;5201402;28;20490;-81
2021/03/05 03:28:16;;;;;;;13.38;7.72;;;;;;;2.15;100.00;101355.97;5201645;28;20041;-81
2021/03/05 03:30:47;;;;;;;13.57;7.45;;;;;;;2.06;100.00;101362.72;5193814;28;20036;-81
2021/03/05 03:33:18;;;;;;;17.20;7.60;;;;;;;1.91;100.00;101367.72;5185305;28;20468;-81
2021/03/05 03:35:49;;;;;;;13.00;7.43;;;;;;;1.94;100.00;101370.31;5184596;28;20026;-81
2021/03/05 03:38:21;;;;;;;12.70;6.45;;;;;;;1.99;100.00;101376.41;5183577;28;20109;-81
2021/03/05 03:40:52;;;;;;;14.90;6.10;;;;;;;1.88;100.00;101389.19;5186234;28;21738;-81
2021/03/05 03:43:22;;;;;;;15.13;6.30;;;;;;;1.77;100.00;101395.00;5192557;28;20022;-81
2021/03/05 03:45:53;;;;;;;11.70;6.20;;;;;;;1.92;100.00;101400.34;5206131;28;20495;-81
2021/03/05 03:48:26;;;;;;;14.27;5.80;;;;;;;1.79;100.00;101398.50;5204926;28;20086;-81
2021/03/05 03:51:03;;;;;;;13.65;5.63;;;;;;;1.86;100.00;101410.59;5206512;28;20542;-81
2021/03/05 03:53:36;;;;;;;11.07;5.82;;;;;;;1.75;100.00;101413.91;5206090;28;20036;-81
2021/03/05 03:56:10;;;;;;;12.73;5.70;;;;;;;1.91;100.00;101416.66;5204935;28;20027;-81
2021/03/05 03:58:41;;;;;;;16.88;5.72;;;;;;;1.88;100.00;101421.78;5196870;28;20029;-81
2021/03/05 04:01:13;;;;;;;14.32;5.13;;;;;;;1.80;100.00;101426.84;5185487;28;20034;-81
2021/03/05 04:03:48;;;;;;;10.65;4.53;;;;;;;1.66;100.00;101426.63;5182973;28;20017;-81
2021/03/05 04:06:24;;;;;;;10.60;3.23;;;;;;;1.64;100.00;101428.31;5185830;28;20053;-81
2021/03/05 04:08:55;;;;;;;10.55;4.43;;;;;;;1.51;100.00;101431.56;5185209;28;20060;-81
2021/03/05 04:11:26;;;;;;;7.93;4.20;;;;;;;1.46;100.00;101436.69;5195262;28;20021;-81
2021/03/05 04:13:56;;;;;;;8.63;3.50;;;;;;;1.35;100.00;101440.78;5190873;28;20496;-81
2021/03/05 04:16:27;;;;;;;11.10;3.70;;;;;;;1.20;100.00;101450.00;5185063;28;20026;-81
2021/03/05 04:18:57;;;;;;;12.23;3.80;;;;;;;1.19;100.00;101443.97;5182455;28;20101;-81
2021/03/05 04:21:35;;;;;;;9.50;3.95;;;;;;;1.10;100.00;101456.66;5189453;28;20032;-80
2021/03/05 04:24:06;;;;;;;9.18;3.30;;;;;;;1.13;100.00;101449.03;5187248;28;20018;-80
2021/03/05 04:26:36;;;;;;;7.95;3.00;;;;;;;0.98;100.00;101441.06;5188696;28;20029;-80
2021/03/05 04:29:07;;;;;;;8.70;3.20;;;;;;;1.01;100.00;101450.50;5190949;28;20537;-81
2021/03/05 04:31:37;;;;;;;12.07;2.90;;;;;;;0.95;100.00;101459.03;5190759;28;20052;-81
2021/03/05 04:34:08;;;;;;;7.95;2.75;;;;;;;0.78;100.00;101465.59;5183842;28;20485;-81
2021/03/05 04:36:38;;;;;;;7.50;2.40;;;;;;;0.67;100.00;101477.38;5183507;28;20373;-80
2021/03/05 04:39:09;;;;;;;9.02;3.13;;;;;;;0.58;100.00;101477.19;5183985;28;20161;-80
2021/03/05 04:41:39;;;;;;;11.48;2.63;;;;;;;0.51;100.00;101485.63;5194171;28;20356;-81
2021/03/05 04:44:09;;;;;;;8.85;3.22;;;;;;;0.54;100.00;101483.13;5187956;28;20025;-81
2021/03/05 04:46:39;;;;;;;11.75;2.80;;;;;;;0.47;100.00;101472.69;5184283;28;20164;-81
2021/03/05 04:49:10;;;;;;;8.23;2.72;;;;;;;0.65;100.00;101484.19;5184019;28;20050;-81
2021/03/05 04:51:40;;;;;;;8.15;2.60;;;;;;;0.65;100.00;101488.44;5182622;28;20033;-80
2021/03/05 04:54:10;;;;;;;10.70;2.58;;;;;;;0.57;100.00;101479.75;5183549;28;20079;-80
2021/03/05 04:56:41;;;;;;;10.10;2.83;;;;;;;0.33;100.00;101486.97;5179875;28;20116;-81
2021/03/05 04:59:11;;;;;;;9.60;2.55;;;;;;;0.43;100.00;101487.19;5185865;28;20160;-81
2021/03/05 05:01:41;;;;;;;9.25;2.55;;;;;;;0.37;100.00;101486.22;5193707;28;20033;-81
2021/03/05 05:04:12;;;;;;;11.35;2.72;;;;;;;0.45;100.00;101490.66;5191750;28;20538;-81
2021/03/05 05:06:42;;;;;;;8.73;2.35;;;;;;;0.39;100.00;101495.66;5191687;28;20046;-81
2021/03/05 05:09:12;;;;;;;6.93;2.38;;;;;;;0.34;100.00;101502.44;5191535;28;20037;-81
2021/03/05 05:11:42;;;;;;;7.38;2.03;;;;;;;0.31;100.00;101506.63;5189771;28;20018;-79
2021/03/05 05:14:13;;;;;;;8.40;2.70;;;;;;;0.23;100.00;101506.47;5198852;28;20014;-79
2021/03/05 05:16:43;;;;;;;8.70;2.80;;;;;;;0.47;100.00;101501.84;5204910;28;20427;-81
2021/03/05 05:19:13;;;;;;;8.93;2.40;;;;;;;0.47;100.00;101514.69;5203321;28;20052;-82
2021/03/05 05:21:44;;;;;;;11.82;2.22;;;;;;;0.43;100.00;101512.91;5204573;28;20029;-80
2021/03/05 05:24:14;;;;;;;8.88;2.40;;;;;;;0.37;100.00;101522.19;5204010;28;20028;-81
2021/03/05 05:26:44;;;;;;;11.68;2.83;;;;;;;0.31;100.00;101525.50;5204394;28;20034;-80
2021/03/05 05:29:14;;;;;;;8.68;2.60;;;;;;;0.27;100.00;101536.56;5203666;28;20526;-80
2021/03/05 05:31:45;;;;;;;6.95;2.20;;;;;;;0.40;100.00;101533.38;5187829;28;20026;-80
2021/03/05 05:34:15;;;;;;;7.50;2.60;;;;;;;0.55;100.00;101530.28;5182146;28;20547;-82
2021/03/05 05:36:45;;;;;;;7.95;2.28;;;;;;;0.49;100.00;101528.44;5195740;28;20022;-79
2021/03/05 05:39:16;;;;;;;6.45;2.17;;;;;;;0.53;100.00;101530.22;5190191;28;20025;-80
2021/03/05 05:41:46;;;;;;;10.98;2.55;;;;;;;0.30;100.00;101533.16;5188680;28;20690;-80
2021/03/05 05:44:17;;;;;;;9.27;2.17;;;;;;;0.30;100.00;101549.47;5187663;28;20476;-80
2021/03/05 05:46:47;;;;;;;5.70;2.17;;;;;;;0.39;100.00;101548.81;5184936;28;20061;-80
2021/03/05 05:49:18;;;;;;;8.73;2.55;;;;;;;0.15;100.00;101551.72;5183470;28;20037;-79
2021/03/05 05:51:50;;;;;;;9.23;2.40;;;;;;;0.33;100.00;101548.66;5182903;28;20484;-81
2021/03/05 05:54:22;;;;;;;10.85;2.40;;;;;;;0.36;100.00;101559.88;5183006;28;20030;-79
2021/03/05 05:56:52;;;;;;;9.50;2.28;;;;;;;0.34;100.00;101558.97;5182756;28;20499;-79
2021/03/05 05:59:26;;;;;;;10.07;2.42;;;;;;;0.44;100.00;101560.91;5186439;28;20057;-81
2021/03/05 06:01:57;;;;;;;11.50;2.53;;;;;;;0.46;100.00;101561.81;5191617;28;20037;-79
2021/03/05 06:04:27;;;;;;;13.77;3.05;;;;;;;0.42;100.00;101566.84;5182502;28;20033;-81
2021/03/05 06:06:57;;;;;;;10.02;2.63;;;;;;;0.24;100.00;101576.75;5182579;28;20052;-79
2021/03/05 06:09:28;;;;;;;6.68;2.60;;;;;;;0.20;100.00;101580.09;5182851;28;20112;-79
2021/03/05 06:11:58;;;;;;;8.32;2.33;;;;;;;0.44;100.00;101576.34;5186017;28;20097;-81
2021/03/05 06:14:29;;;;;;;8.02;2.40;;;;;;;0.39;100.00;101577.94;5203223;28;20096;-80
2021/03/05 06:16:59;;;;;;;12.43;2.83;;;;;;;0.48;100.00;101582.38;5203558;28;20029;-80
2021/03/05 06:19:30;;;;;;;10.30;2.60;;;;;;;0.41;100.00;101583.13;5203419;28;20025;-80
2021/03/05 06:22:01;;;;;;;10.23;2.47;;;;;;;0.53;100.00;101586.81;5203741;28;20701;-80
2021/03/05 06:24:43;;;;;;;8.65;2.95;;;;;;;0.34;100.00;101601.78;5203373;28;20021;-82
2021/03/05 06:27:15;;;;;;;8.73;2.80;;;;;;;0.51;100.00;101606.47;5203546;28;20025;-81
2021/03/05 06:29:47;;;;;;;6.65;2.60;;;;;;;0.31;100.00;101610.31;5201876;28;20033;-81
2021/03/05 06:32:19;;;;;;;8.75;2.65;;;;;;;0.58;100.00;101608.31;5203257;28;20058;-80
2021/03/05 06:34:52;;;;;;;8.15;2.45;;;;;;;0.65;100.00;101615.34;5201289;28;20021;-80
2021/03/05 06:37:24;;;;;;;11.32;2.70;;;;;;;0.60;100.00;101624.69;5203146;28;20018;-83
2021/03/05 06:40:00;;;;;;;6.93;2.55;;;;;;;0.52;100.00;101631.34;5202039;28;20507;-83
2021/03/05 06:42:47;;;;;;;9.43;2.78;;;;;;;0.41;100.00;101637.09;5187171;28;20026;-80
2021/03/05 06:45:20;;;;;;;9.30;2.92;;;;;;;0.57;100.00;101644.31;5162589;28;20030;-80
2021/03/05 06:48:08;;;;;;;10.73;2.70;;;;;;;0.53;100.00;101661.38;5161784;28;20393;-80
2021/03/05 06:50:42;;;;;;;10.40;2.90;;;;;;;0.65;100.00;101653.94;5161168;28;20029;-81
2021/03/05 06:53:20;;;;;;;11.45;3.28;;;;;;;0.72;100.00;101660.91;5160770;28;20033;-81
2021/03/05 06:55:51;;;;;;;12.35;3.00;;;;;;;0.76;100.00;101657.56;5161069;28;20032;-80
2021/03/05 06:58:21;;;;;;;7.55;2.85;;;;;;;0.67;100.00;101669.38;5161704;28;20097;-81
2021/03/05 07:01:02;;;;;;;11.40;3.40;;;;;;;0.69;100.00;101673.72;5185295;28;20036;-82
2021/03/05 07:03:33;;;;;;;12.43;2.95;;;;;;;0.63;100.00;101678.75;5182786;28;20160;-81
2021/03/05 07:06:03;;;;;;;9.05;3.00;;;;;;;0.52;100.00;101680.22;5181471;28;20479;-82
2021/03/05 07:08:41;;;;;;;12.82;3.10;;;;;;;0.89;100.00;101674.16;5182748;28;20030;-81
2021/03/05 07:11:31;;;;;;;15.82;3.10;;;;;;;0.96;100.00;101682.03;5181680;28;20038;-81
2021/03/05 07:14:03;;;;;;;8.27;2.45;;;;;;;0.91;100.00;101685.34;5162720;28;20027;-81
2021/03/05 07:16:42;;;;;;;9.88;3.10;;;;;;;0.98;100.00;101688.06;5203130;28;20111;-81
2021/03/05 07:19:15;;;;;;;10.35;2.90;;;;;;;1.01;99.66;101695.84;5203448;28;20088;-80
2021/03/05 07:21:47;;;;;;;6.75;2.63;;;;;;;1.07;99.24;101701.13;5202680;28;20038;-81
2021/03/05 07:24:20;;;;;;;10.93;2.78;;;;;;;1.39;98.90;101710.34;5202220;28;20495;-82
2021/03/05 07:27:01;;;;;;;10.73;2.75;;;;;;;1.56;97.75;101708.97;5203585;28;20124;-81
2021/03/05 07:29:34;;;;;;;11.38;2.63;;;;;;;1.45;97.07;101718.22;5203749;28;20043;-83
2021/03/05 07:32:08;;;;;;;14.52;2.45;;;;;;;1.86;96.25;101715.53;5202657;28;20048;-82
2021/03/05 07:34:57;;;;;;;11.07;2.22;;;;;;;3.79;88.51;101700.13;5203253;28;20021;-81
2021/03/05 07:37:30;;;;;;;6.25;2.08;;;;;;;5.14;81.91;101706.28;5203368;28;20022;-80
2021/03/05 07:40:13;;;;;;;8.43;2.30;;;;;;;5.60;77.40;101703.00;5200743;28;20118;-78
2021/03/05 07:42:44;;;;;;;8.45;2.00;;;;;;;7.62;71.98;101697.50;5186504;28;20468;-78
2021/03/05 07:45:16;;;;;;;7.20;2.00;;;;;;;8.81;66.63;101706.13;5200910;28;20427;-80
2021/03/05 07:47:48;;;;;;;5.80;2.05;;;;;;;9.61;63.06;101695.53;5201408;28;20032;-79
2021/03/05 07:50:24;;;;;;;7.03;2.03;;;;;;;9.59;63.76;101700.81;5201498;28;20030;-80
2021/03/05 07:52:58;;;;;;;6.80;2.00;;;;;;;10.22;62.65;101697.28;5203291;28;20032;-79
2021/03/05 07:55:39;;;;;;;6.18;1.90;;;;;;;10.21;62.02;101707.75;5205199;28;20026;-81
2021/03/05 07:58:12;;;;;;;9.25;2.00;;;;;;;8.40;63.34;101720.41;5205056;28;20033;-80
2021/03/05 08:00:49;;;;;;;9.82;1.88;;;;;;;8.19;66.09;101711.00;5205248;28;20071;-79
2021/03/05 08:03:24;;;;;;;6.18;1.90;;;;;;;8.86;63.54;101712.13;5205067;28;20395;-78
2021/03/05 08:05:57;;;;;;;7.07;2.00;;;;;;;9.99;62.03;101706.31;5204889;28;20116;-78
2021/03/05 08:08:29;;;;;;;9.57;2.13;;;;;;;8.66;63.23;101706.25;5205084;28;20032;-79
2021/03/05 08:11:05;;;;;;;10.73;2.20;;;;;;;8.91;63.50;101710.34;5205428;28;20087;-82
2021/03/05 08:13:51;;;;;;;8.57;2.30;;;;;;;9.48;62.21;101709.66;5205227;28;20101;-81
2021/03/05 08:16:27;;;;;;;;;;;;;;;9.95;62.50;101715.94;5207204;28;20055;-82
2021/03/05 08:19:06;;;;;;;10.00;2.15;;;;;;;9.60;61.11;101714.69;5205839;28;20423;-81
2021/03/05 08:21:58;;;;;;;7.60;3.17;;;;;;;9.98;60.11;101717.66;5206641;28;20108;-81
2021/03/05 08:24:29;;;;;;;6.93;2.17;;;;;;;11.21;57.46;101712.00;5206261;28;20544;-80
2021/03/05 08:27:02;;;;;;;9.75;2.30;;;;;;;11.92;56.08;101706.09;5206325;28;20029;-82
2021/03/05 08:30:04;;;;;;;11.57;1.92;;;;;;;10.63;58.14;101714.84;5197855;28;20056;-81
2021/03/05 08:32:34;;;;;;;8.35;2.20;;;;;;;11.39;58.16;101718.59;5203024;28;20041;-83
2021/03/05 08:35:11;;;;;;;6.55;2.17;;;;;;;10.96;59.25;101719.47;5204761;28;20021;-82
2021/03/05 08:38:00;;;;;;;10.30;2.25;;;;;;;8.46;65.43;101742.06;5205665;28;20033;-82
2021/03/05 08:40:33;;;;;;;6.60;2.05;;;;;;;11.21;59.43;101725.06;5205590;28;20483;-80
2021/03/05 08:43:09;;;;;;;8.32;2.10;;;;;;;10.97;58.29;101734.25;5204125;28;20539;-78
2021/03/05 08:45:41;;;;;;;7.07;2.10;;;;;;;11.28;58.80;101739.75;5204310;28;20057;-79
2021/03/05 08:48:15;;;;;;;8.98;1.90;;;;;;;10.59;59.62;101732.34;5204121;28;20034;-79
2021/03/05 08:50:45;;;;;;;7.03;2.00;;;;;;;11.35;57.94;101746.59;5204518;28;20021;-80
2021/03/05 08:53:16;;;;;;;8.60;1.90;;;;;;;11.53;57.15;101751.47;5204190;28;20379;-79
2021/03/05 08:55:47;;;;;;;5.97;2.03;;;;;;;10.41;58.54;101752.69;5203413;28;20120;-79
2021/03/05 08:58:17;;;;;;;8.57;2.00;;;;;;;9.40;60.49;101763.66;5193670;28;20109;-78
2021/03/05 09:00:48;;;;;;;7.50;2.10;;;;;;;8.29;65.43;101758.69;5197887;28;20024;-78
2021/03/05 09:03:18;;;;;;;7.88;2.40;;;;;;;7.66;66.49;101769.47;5186597;28;20021;-80
2021/03/05 09:05:50;;;;;;;8.80;2.40;;;;;;;7.66;67.54;101780.72;5189621;28;20118;-79
2021/03/05 09:08:23;;;;;;;7.40;2.20;;;;;;;8.00;67.75;101786.59;5182434;28;20065;-78
2021/03/05 09:10:58;;;;;;;11.35;2.30;;;;;;;8.50;64.99;101774.13;5187418;28;20029;-79
2021/03/05 09:13:31;;;;;;;10.63;2.40;;;;;;;8.76;64.53;101778.25;5188511;28;20014;-78
2021/03/05 09:16:04;;;;;;;5.75;2.10;;;;;;;7.99;65.10;101766.66;5187256;28;20071;-78
2021/03/05 09:18:36;;;;;;;10.63;2.10;;;;;;;7.88;67.87;101777.13;5203531;28;20022;-79
2021/03/05 09:21:09;;;;;;;9.98;2.40;;;;;;;7.41;70.36;101773.91;5203574;28;20029;-79
2021/03/05 09:23:41;;;;;;;8.93;2.38;;;;;;;7.52;68.18;101774.72;5203043;28;20153;-79
2021/03/05 09:26:16;;;;;;;7.72;2.40;;;;;;;6.79;72.17;101774.91;5203680;28;20025;-79
2021/03/05 09:28:52;;;;;;;8.27;2.20;;;;;;;6.33;72.20;101782.72;5203609;28;20096;-80
2021/03/05 09:31:24;;;;;;;9.35;2.40;;;;;;;6.44;74.68;101787.03;5192850;28;20364;-78
2021/03/05 09:33:55;;;;;;;12.35;2.67;;;;;;;6.66;71.59;101793.09;5203423;28;20476;-79
2021/03/05 09:36:26;;;;;;;10.32;2.15;;;;;;;6.18;73.37;101790.47;5200440;28;20112;-80
2021/03/05 09:39:03;;;;;;;8.52;2.10;;;;;;;5.74;74.58;101797.25;5188008;28;20100;-79
2021/03/05 09:41:34;;;;;;;10.57;2.53;;;;;;;5.67;74.56;101805.88;5203816;28;20032;-78
2021/03/05 09:44:09;;;;;;;7.85;1.92;;;;;;;6.19;74.26;101802.59;5185126;28;20022;-78
2021/03/05 09:46:41;;;;;;;10.40;2.30;;;;;;;6.07;73.18;101805.19;5183333;28;20399;-78
2021/03/05 09:49:29;;;;;;;10.25;2.40;;;;;;;6.61;73.27;101810.44;5183083;28;20183;-79
2021/03/05 09:52:00;;;;;;;8.55;2.22;;;;;;;5.73;75.92;101821.47;5182877;28;20030;-78
2021/03/05 09:54:37;;;;;;;9.43;2.33;;;;;;;5.84;76.32;101827.56;5191401;28;20045;-79
2021/03/05 09:57:11;;;;;;;8.63;1.95;;;;;;;6.57;73.34;101816.50;5182698;28;20403;-79
2021/03/05 09:59:43;;;;;;;5.97;1.92;;;;;;;5.73;76.23;101816.28;5186383;28;20048;-80
2021/03/05 10:02:21;;;;;;;11.00;2.30;;;;;;;5.66;76.46;101827.47;5199880;28;20104;-79
2021/03/05 10:04:52;;;;;;;7.05;2.28;;;;;;;5.79;76.84;101829.28;5202166;28;20025;-80
2021/03/05 10:07:22;;;;;;;11.68;2.50;;;;;;;6.15;77.50;101829.41;5202679;28;20048;-79
2021/03/05 10:10:06;;;;;;;11.02;2.30;;;;;;;5.87;75.71;101833.66;5200443;28;20137;-79
2021/03/05 10:12:36;;;;;;;9.05;2.50;;;;;;;6.23;75.13;101831.16;5185785;28;20021;-78
2021/03/05 10:15:07;;;;;;;13.30;2.53;;;;;;;6.08;74.53;101832.88;5181284;28;20053;-79
2021/03/05 10:17:39;;;;;;;9.38;3.08;;;;;;;5.87;74.06;101845.75;5182392;28;20075;-79
2021/03/05 10:20:10;;;;;;;12.98;2.50;;;;;;;5.39;73.73;101854.13;5181818;28;20535;-78
2021/03/05 10:22:41;;;;;;;8.13;2.13;;;;;;;5.70;74.03;101855.16;5182111;28;20453;-80
2021/03/05 10:25:12;;;;;;;8.73;2.67;;;;;;;6.14;74.07;101845.84;5181955;28;20101;-81
2021/03/05 10:27:42;;;;;;;8.35;2.00;;;;;;;6.22;73.05;101849.34;5178141;28;20030;-80
2021/03/05 10:30:14;;;;;;;7.53;2.05;;;;;;;5.71;73.02;101851.72;5196955;28;20575;-79
2021/03/05 10:32:47;;;;;;;6.57;1.73;;;;;;;5.88;70.97;101844.91;5196799;28;20052;-79
2021/03/05 10:35:17;;;;;;;8.45;2.00;;;;;;;5.80;73.32;101857.84;5201790;28;20021;-79
2021/03/05 10:37:48;;;;;;;7.32;1.67;;;;;;;5.94;73.46;101870.88;5194394;28;20128;-79
2021/03/05 10:40:19;;;;;;;9.32;1.83;;;;;;;5.98;72.52;101862.22;5184851;28;20025;-79
2021/03/05 10:42:50;;;;;;;14.90;5.78;;;;;;;6.10;72.96;101868.31;5193826;28;20018;-78
2021/03/05 10:45:21;;;;;;;12.48;5.13;;;;;;;6.57;74.01;101865.84;5201996;28;20018;-79
2021/03/05 10:47:51;;;;;;;13.00;2.10;;;;;;;6.28;72.77;101867.50;5201415;28;20664;-79
2021/03/05 10:50:21;;;;;;;16.63;5.93;;;;;;;6.14;73.61;101874.38;5201453;28;20022;-79
2021/03/05 10:52:52;;;;;;;10.27;2.72;;;;;;;5.94;74.16;101876.91;5200271;28;20025;-79
2021/03/05 10:55:22;;;;;;;7.72;1.90;;;;;;;5.59;73.19;101886.22;5186404;28;20101;-81
2021/03/05 10:57:52;;;;;;;11.50;4.28;;;;;;;5.74;73.20;101888.03;5185327;28;20026;-81
2021/03/05 11:00:24;;;;;;;16.77;6.93;;;;;;;6.06;71.91;101881.31;5191563;28;20499;-81
2021/03/05 11:02:54;;;;;;;6.18;1.70;;;;;;;5.90;69.13;101890.72;5184513;28;20094;-81
2021/03/05 11:05:25;;;;;;;4.88;1.45;;;;;;;5.72;69.52;101889.75;5190625;28;20101;-80
2021/03/05 11:07:55;;;;;;;7.90;1.60;;;;;;;5.43;71.15;101886.13;5183033;28;20542;-81
2021/03/05 11:10:25;;;;;;;4.22;1.52;;;;;;;5.84;72.69;101897.63;5183118;28;20018;-81
2021/03/05 11:12:56;;;;;;;7.53;1.73;;;;;;;6.31;70.58;101893.47;5192907;28;20018;-80
2021/03/05 11:15:26;;;;;;;4.57;1.40;;;;;;;6.02;70.26;101893.38;5190579;28;20052;-81
2021/03/05 11:17:56;;;;;;;7.93;1.40;;;;;;;5.95;69.90;101904.59;5192368;28;20022;-81
2021/03/05 11:20:26;;;;;;;6.60;1.40;;;;;;;5.81;68.01;101895.91;5184582;28;20022;-81
2021/03/05 11:22:57;;;;;;;6.05;1.20;;;;;;;5.77;68.67;101896.69;5182688;28;20472;-81
2021/03/05 11:25:27;;;;;;;7.50;1.73;;;;;;;5.78;68.29;101902.75;5183989;28;20021;-81
2021/03/05 11:27:58;;;;;;;5.38;1.42;;;;;;;5.86;67.22;101903.66;5189170;28;20029;-81
2021/03/05 11:30:29;;;;;;;5.57;1.30;;;;;;;6.02;66.36;101890.78;5194731;28;20026;-81
2021/03/05 11:32:59;;;;;;;3.60;1.05;;;;;;;5.88;64.32;101886.41;5186847;28;20053;-80
2021/03/05 11:35:29;;;;;;;5.97;1.02;;;;;;;6.09;62.43;101889.94;5177973;28;20469;-81
2021/03/05 11:38:00;;;;;;;3.03;0.60;;;;;;;6.32;59.47;101892.59;5199538;28;20029;-81
2021/03/05 11:40:30;;;;;;;2.80;0.80;;;;;;;6.17;60.29;101890.84;5206487;28;20021;-81
2021/03/05 11:43:00;;;;;;;2.72;0.73;;;;;;;6.34;62.80;101888.28;5197777;28;20462;-81
2021/03/05 11:45:31;;;;;;;3.33;0.80;;;;;;;6.26;60.10;101895.19;5183351;28;20030;-81
2021/03/05 11:48:01;;;;;;;4.75;0.77;;;;;;;6.34;62.55;101894.34;5205083;28;20037;-81
2021/03/05 11:50:32;;;;;;;8.02;1.25;;;;;;;6.18;63.37;101894.28;5208104;28;20033;-81
2021/03/05 11:53:02;;;;;;;3.35;0.80;;;;;;;5.99;62.03;101897.69;5207369;28;20032;-80
2021/03/05 11:55:33;;;;;;;4.07;0.77;;;;;;;5.91;60.72;101896.81;5187743;28;20033;-81
2021/03/05 11:58:03;;;;;;;2.22;0.77;;;;;;;5.93;60.01;101898.53;5189448;28;20080;-80